createdAt,value
2017-07-25T00:00:28.165Z,23.66
2017-07-25T00:01:08.614Z,23.66
2017-07-25T00:01:49.074Z,23.63
2017-07-25T00:02:29.525Z,23.62
2017-07-25T00:03:09.987Z,23.62
2017-07-25T00:03:50.439Z,23.59
2017-07-25T00:04:30.881Z,23.66
2017-07-25T00:05:11.337Z,23.51
2017-07-25T00:05:51.790Z,23.56
2017-07-25T00:06:32.263Z,23.58
2017-07-25T00:07:12.707Z,23.52
2017-07-25T00:07:53.163Z,23.56
2017-07-25T00:08:33.613Z,23.55
2017-07-25T00:09:14.072Z,23.49
2017-07-25T00:09:54.548Z,23.56
2017-07-25T00:10:34.975Z,23.54
2017-07-25T00:11:15.431Z,23.55
2017-07-25T00:11:55.883Z,23.52
2017-07-25T00:12:36.336Z,23.55
2017-07-25T00:13:16.789Z,23.55
2017-07-25T00:13:57.250Z,23.54
2017-07-25T00:14:37.702Z,23.52
2017-07-25T00:15:18.150Z,23.51
2017-07-25T00:15:58.602Z,23.52
2017-07-25T00:16:39.055Z,23.51
2017-07-25T00:17:19.511Z,23.49
2017-07-25T00:17:59.967Z,23.42
2017-07-25T00:18:40.427Z,23.44
2017-07-25T00:19:20.884Z,23.45
2017-07-25T00:20:01.340Z,23.42
2017-07-25T00:20:41.792Z,23.44
2017-07-25T00:21:22.248Z,23.49
2017-07-25T00:22:02.709Z,23.47
2017-07-25T00:22:43.167Z,23.52
2017-07-25T00:23:23.621Z,23.51
2017-07-25T00:24:04.074Z,23.56
2017-07-25T00:24:44.541Z,23.51
2017-07-25T00:25:24.995Z,23.52
2017-07-25T00:26:05.455Z,23.52
2017-07-25T00:26:45.918Z,23.54
2017-07-25T00:27:26.369Z,23.52
2017-07-25T00:28:06.827Z,23.52
2017-07-25T00:28:47.283Z,23.54
2017-07-25T00:29:27.739Z,23.45
2017-07-25T00:30:08.188Z,23.48
2017-07-25T00:30:48.649Z,23.39
2017-07-25T00:31:29.104Z,23.44
2017-07-25T00:32:09.556Z,23.4
2017-07-25T00:32:50.008Z,23.28
2017-07-25T00:33:30.462Z,23.32
2017-07-25T00:34:10.915Z,23.33
2017-07-25T00:34:51.376Z,23.25
2017-07-25T00:35:31.832Z,23.32
2017-07-25T00:36:12.288Z,23.25
2017-07-25T00:36:52.743Z,23.28
2017-07-25T00:37:33.191Z,23.29
2017-07-25T00:38:13.647Z,23.26
2017-07-25T00:38:54.100Z,23.2
2017-07-25T00:39:34.557Z,23.2
2017-07-25T00:40:15.035Z,23.18
2017-07-25T00:40:55.488Z,23.13
2017-07-25T00:41:35.943Z,23.13
2017-07-25T00:42:16.412Z,23.26
2017-07-25T00:42:56.851Z,23.23
2017-07-25T00:43:37.311Z,23.21
2017-07-25T00:44:17.769Z,23.28
2017-07-25T00:44:58.223Z,23.2
2017-07-25T00:45:38.677Z,23.25
2017-07-25T00:46:19.135Z,23.2
2017-07-25T00:46:59.591Z,23.28
2017-07-25T00:47:40.039Z,23.11
2017-07-25T00:48:20.490Z,23.26
2017-07-25T00:49:00.940Z,23.34
2017-07-25T00:49:41.387Z,23.34
2017-07-25T00:50:21.836Z,23.33
2017-07-25T00:51:02.297Z,23.32
2017-07-25T00:51:42.749Z,23.33
2017-07-25T00:52:23.206Z,23.39
2017-07-25T00:53:03.651Z,23.32
2017-07-25T00:53:44.104Z,23.36
2017-07-25T00:54:24.564Z,23.37
2017-07-25T00:55:05.034Z,23.32
2017-07-25T00:55:45.517Z,23.37
2017-07-25T00:56:25.971Z,23.32
2017-07-25T00:57:06.432Z,23.28
2017-07-25T00:57:46.883Z,23.34
2017-07-25T00:58:27.340Z,23.26
2017-07-25T00:59:07.794Z,23.36
2017-07-25T00:59:48.249Z,23.32
2017-07-25T01:00:28.703Z,23.33
2017-07-25T01:01:09.159Z,23.28
2017-07-25T01:01:49.615Z,23.36
2017-07-25T01:02:30.094Z,23.34
2017-07-25T01:03:10.549Z,23.33
2017-07-25T01:03:51.003Z,23.26
2017-07-25T01:04:31.455Z,23.28
2017-07-25T01:05:11.909Z,23.29
2017-07-25T01:05:52.367Z,23.33
2017-07-25T01:06:32.826Z,23.23
2017-07-25T01:07:13.282Z,23.26
2017-07-25T01:07:53.737Z,23.2
2017-07-25T01:08:34.194Z,23.2
2017-07-25T01:09:14.651Z,23.29
2017-07-25T01:09:55.101Z,23.28
2017-07-25T01:10:35.552Z,23.25
2017-07-25T01:11:16.006Z,23.23
2017-07-25T01:11:56.459Z,23.16
2017-07-25T01:12:36.917Z,23.13
2017-07-25T01:13:17.367Z,23.2
2017-07-25T01:13:57.826Z,23.16
2017-07-25T01:14:38.281Z,23.14
2017-07-25T01:15:18.724Z,23.11
2017-07-25T01:15:59.175Z,23.14
2017-07-25T01:16:39.622Z,23.17
2017-07-25T01:17:20.084Z,23.16
2017-07-25T01:18:00.541Z,23.13
2017-07-25T01:18:40.994Z,23.14
2017-07-25T01:19:21.457Z,23.08
2017-07-25T01:20:01.916Z,23.07
2017-07-25T01:20:42.364Z,23.07
2017-07-25T01:21:22.818Z,23.08
2017-07-25T01:22:03.277Z,23.06
2017-07-25T01:22:43.731Z,23.18
2017-07-25T01:23:24.186Z,23.07
2017-07-25T01:24:04.642Z,23.14
2017-07-25T01:24:45.089Z,23.11
2017-07-25T01:25:25.544Z,23.14
2017-07-25T01:26:06.009Z,23.2
2017-07-25T01:26:46.466Z,23.2
2017-07-25T01:27:26.921Z,23.18
2017-07-25T01:28:07.374Z,23.14
2017-07-25T01:28:47.828Z,23.17
2017-07-25T01:29:28.282Z,23.17
2017-07-25T01:30:08.736Z,23.18
2017-07-25T01:30:49.172Z,23.14
2017-07-25T01:31:29.628Z,23.13
2017-07-25T01:32:10.095Z,23.13
2017-07-25T01:32:50.544Z,23.07
2017-07-25T01:33:31.000Z,23.11
2017-07-25T01:34:11.457Z,23.11
2017-07-25T01:34:51.914Z,23.11
2017-07-25T01:35:32.361Z,23.08
2017-07-25T01:36:12.821Z,23.07
2017-07-25T01:36:53.274Z,23.07
2017-07-25T01:37:33.723Z,23.06
2017-07-25T01:38:14.177Z,23.01
2017-07-25T01:38:54.629Z,23.01
2017-07-25T01:39:35.085Z,23.01
2017-07-25T01:40:15.540Z,23.01
2017-07-25T01:40:55.995Z,23.01
2017-07-25T01:41:36.449Z,23.01
2017-07-25T01:42:16.902Z,22.99
2017-07-25T01:42:57.369Z,23.08
2017-07-25T01:43:37.822Z,22.98
2017-07-25T01:44:18.279Z,23.1
2017-07-25T01:44:58.728Z,22.96
2017-07-25T01:45:39.186Z,23.02
2017-07-25T01:46:19.638Z,22.99
2017-07-25T01:47:00.095Z,22.98
2017-07-25T01:47:40.540Z,23.04
2017-07-25T01:48:20.992Z,23.04
2017-07-25T01:49:01.449Z,22.98
2017-07-25T01:49:41.907Z,23.07
2017-07-25T01:50:22.364Z,23.04
2017-07-25T01:51:02.798Z,23.14
2017-07-25T01:51:43.245Z,23.17
2017-07-25T01:52:23.711Z,23.14
2017-07-25T01:53:04.165Z,23.16
2017-07-25T01:53:44.621Z,23.13
2017-07-25T01:54:25.079Z,23.2
2017-07-25T01:55:05.538Z,23.2
2017-07-25T01:55:45.999Z,23.17
2017-07-25T01:56:26.456Z,23.13
2017-07-25T01:57:06.918Z,23.07
2017-07-25T01:57:47.368Z,23.06
2017-07-25T01:58:27.825Z,23.02
2017-07-25T01:59:08.291Z,22.96
2017-07-25T01:59:48.751Z,23.02
2017-07-25T02:00:29.209Z,23.07
2017-07-25T02:01:09.666Z,23.06
2017-07-25T02:01:50.125Z,23.06
2017-07-25T02:02:30.582Z,22.98
2017-07-25T02:03:11.036Z,23.02
2017-07-25T02:03:51.486Z,23.1
2017-07-25T02:04:31.948Z,22.98
2017-07-25T02:05:12.400Z,23.06
2017-07-25T02:05:52.857Z,23.02
2017-07-25T02:06:33.320Z,23.02
2017-07-25T02:07:13.766Z,22.98
2017-07-25T02:07:54.220Z,23.02
2017-07-25T02:08:34.676Z,22.99
2017-07-25T02:09:15.138Z,23.01
2017-07-25T02:09:55.592Z,22.95
2017-07-25T02:10:36.053Z,22.99
2017-07-25T02:11:16.513Z,22.95
2017-07-25T02:11:56.973Z,22.96
2017-07-25T02:12:37.431Z,22.91
2017-07-25T02:13:17.882Z,22.92
2017-07-25T02:13:58.320Z,22.91
2017-07-25T02:14:38.781Z,22.86
2017-07-25T02:15:19.232Z,22.84
2017-07-25T02:15:59.686Z,22.83
2017-07-25T02:16:40.146Z,22.83
2017-07-25T02:17:20.602Z,22.86
2017-07-25T02:18:01.061Z,22.86
2017-07-25T02:18:41.528Z,22.83
2017-07-25T02:19:21.989Z,22.77
2017-07-25T02:20:02.462Z,22.8
2017-07-25T02:20:42.914Z,22.76
2017-07-25T02:21:23.373Z,22.78
2017-07-25T02:22:03.834Z,22.74
2017-07-25T02:22:44.293Z,22.78
2017-07-25T02:23:24.752Z,22.71
2017-07-25T02:24:05.206Z,22.74
2017-07-25T02:24:45.660Z,22.68
2017-07-25T02:25:26.114Z,22.67
2017-07-25T02:26:06.572Z,22.76
2017-07-25T02:26:47.026Z,22.71
2017-07-25T02:27:27.490Z,22.63
2017-07-25T02:28:07.942Z,22.59
2017-07-25T02:28:48.398Z,22.47
2017-07-25T02:29:28.849Z,22.46
2017-07-25T02:30:09.311Z,22.47
2017-07-25T02:30:49.761Z,22.47
2017-07-25T02:31:30.214Z,22.44
2017-07-25T02:32:10.676Z,22.44
2017-07-25T02:32:51.136Z,22.47
2017-07-25T02:33:31.594Z,22.44
2017-07-25T02:34:12.040Z,22.37
2017-07-25T02:34:52.505Z,22.34
2017-07-25T02:35:32.962Z,22.34
2017-07-25T02:36:13.424Z,22.37
2017-07-25T02:36:53.865Z,22.34
2017-07-25T02:37:34.322Z,22.22
2017-07-25T02:38:14.784Z,22.38
2017-07-25T02:38:55.239Z,22.36
2017-07-25T02:39:35.699Z,22.36
2017-07-25T02:40:16.151Z,22.37
2017-07-25T02:40:56.610Z,22.4
2017-07-25T02:41:37.065Z,22.43
2017-07-25T02:42:17.521Z,22.38
2017-07-25T02:42:57.971Z,22.33
2017-07-25T02:43:38.430Z,22.31
2017-07-25T02:44:18.883Z,22.33
2017-07-25T02:44:59.339Z,22.4
2017-07-25T02:45:39.804Z,22.37
2017-07-25T02:46:20.252Z,22.4
2017-07-25T02:47:00.708Z,22.43
2017-07-25T02:47:41.167Z,22.4
2017-07-25T02:48:21.625Z,22.43
2017-07-25T02:49:02.084Z,22.47
2017-07-25T02:49:42.541Z,22.53
2017-07-25T02:50:23.001Z,22.41
2017-07-25T02:51:03.463Z,22.56
2017-07-25T02:51:43.921Z,22.51
2017-07-25T02:52:24.379Z,22.51
2017-07-25T02:53:04.833Z,22.47
2017-07-25T02:53:45.292Z,22.51
2017-07-25T02:54:25.753Z,22.44
2017-07-25T02:55:06.204Z,22.55
2017-07-25T02:55:46.687Z,22.53
2017-07-25T02:56:27.142Z,22.52
2017-07-25T02:57:07.597Z,22.53
2017-07-25T02:57:48.051Z,22.47
2017-07-25T02:58:28.513Z,22.55
2017-07-25T02:59:08.966Z,22.43
2017-07-25T02:59:49.419Z,22.59
2017-07-25T03:00:29.882Z,22.52
2017-07-25T03:01:10.335Z,22.51
2017-07-25T03:01:50.795Z,22.47
2017-07-25T03:02:31.254Z,22.61
2017-07-25T03:03:11.708Z,22.61
2017-07-25T03:03:52.168Z,22.53
2017-07-25T03:04:32.612Z,22.61
2017-07-25T03:05:13.071Z,22.63
2017-07-25T03:05:53.519Z,22.58
2017-07-25T03:06:33.976Z,22.51
2017-07-25T03:07:14.430Z,22.59
2017-07-25T03:07:54.901Z,22.62
2017-07-25T03:08:35.351Z,22.61
2017-07-25T03:09:15.808Z,22.63
2017-07-25T03:09:56.268Z,22.65
2017-07-25T03:10:36.727Z,22.68
2017-07-25T03:11:17.175Z,22.55
2017-07-25T03:11:57.631Z,22.61
2017-07-25T03:12:38.087Z,22.71
2017-07-25T03:13:18.538Z,22.7
2017-07-25T03:13:59.017Z,22.68
2017-07-25T03:14:39.445Z,22.71
2017-07-25T03:15:19.912Z,22.68
2017-07-25T03:16:00.366Z,22.68
2017-07-25T03:16:40.827Z,22.71
2017-07-25T03:17:21.281Z,22.67
2017-07-25T03:18:01.725Z,22.68
2017-07-25T03:18:42.181Z,22.71
2017-07-25T03:19:22.667Z,22.7
2017-07-25T03:20:03.119Z,22.71
2017-07-25T03:20:43.572Z,22.74
2017-07-25T03:21:24.032Z,22.76
2017-07-25T03:22:04.487Z,22.71
2017-07-25T03:22:44.942Z,22.73
2017-07-25T03:23:25.402Z,22.76
2017-07-25T03:24:05.855Z,22.67
2017-07-25T03:24:46.318Z,22.73
2017-07-25T03:25:26.774Z,22.81
2017-07-25T03:26:07.228Z,22.8
2017-07-25T03:26:47.681Z,22.77
2017-07-25T03:27:28.145Z,22.8
2017-07-25T03:28:08.599Z,22.81
2017-07-25T03:28:49.056Z,22.83
2017-07-25T03:29:29.528Z,22.81
2017-07-25T03:30:09.999Z,22.8
2017-07-25T03:30:50.464Z,22.84
2017-07-25T03:31:30.916Z,22.78
2017-07-25T03:32:11.369Z,22.74
2017-07-25T03:32:51.857Z,22.74
2017-07-25T03:33:32.309Z,22.81
2017-07-25T03:34:12.767Z,22.76
2017-07-25T03:34:53.222Z,22.74
2017-07-25T03:35:33.678Z,22.71
2017-07-25T03:36:14.137Z,22.76
2017-07-25T03:36:54.596Z,22.77
2017-07-25T03:37:35.053Z,22.73
2017-07-25T03:38:15.509Z,22.74
2017-07-25T03:38:55.960Z,22.7
2017-07-25T03:39:36.417Z,22.7
2017-07-25T03:40:16.880Z,22.8
2017-07-25T03:40:57.329Z,22.77
2017-07-25T03:41:37.785Z,22.81
2017-07-25T03:42:18.249Z,22.89
2017-07-25T03:42:58.700Z,22.86
2017-07-25T03:43:39.153Z,22.89
2017-07-25T03:44:19.598Z,22.93
2017-07-25T03:45:00.049Z,22.96
2017-07-25T03:45:40.519Z,22.95
2017-07-25T03:46:20.976Z,22.98
2017-07-25T03:47:01.439Z,22.99
2017-07-25T03:47:41.881Z,23.04
2017-07-25T03:48:22.338Z,23.06
2017-07-25T03:49:02.788Z,23.06
2017-07-25T03:49:43.244Z,23.01
2017-07-25T03:50:23.709Z,23.02
2017-07-25T03:51:04.154Z,23.06
2017-07-25T03:51:44.607Z,23.08
2017-07-25T03:52:25.056Z,23.01
2017-07-25T03:53:05.509Z,22.98
2017-07-25T03:53:45.970Z,22.98
2017-07-25T03:54:26.425Z,23.04
2017-07-25T03:55:06.883Z,23.01
2017-07-25T03:55:47.341Z,22.99
2017-07-25T03:56:27.808Z,22.98
2017-07-25T03:57:08.271Z,23.07
2017-07-25T03:57:48.739Z,23.08
2017-07-25T03:58:29.190Z,23.08
2017-07-25T03:59:09.651Z,23.08
2017-07-25T03:59:50.108Z,23.16
2017-07-25T04:00:30.558Z,23.13
2017-07-25T04:01:11.015Z,23.13
2017-07-25T04:01:51.472Z,23.08
2017-07-25T04:02:31.933Z,23.14
2017-07-25T04:03:12.389Z,23.17
2017-07-25T04:03:52.844Z,23.16
2017-07-25T04:04:33.299Z,23.26
2017-07-25T04:05:13.750Z,23.25
2017-07-25T04:05:54.201Z,23.32
2017-07-25T04:06:34.650Z,23.21
2017-07-25T04:07:15.121Z,23.29
2017-07-25T04:07:55.668Z,23.28
2017-07-25T04:08:36.060Z,23.39
2017-07-25T04:09:16.495Z,23.36
2017-07-25T04:09:57.010Z,23.34
2017-07-25T04:10:37.464Z,23.36
2017-07-25T04:11:17.922Z,23.42
2017-07-25T04:11:58.378Z,23.34
2017-07-25T04:12:38.832Z,23.39
2017-07-25T04:13:19.284Z,23.49
2017-07-25T04:13:59.739Z,23.45
2017-07-25T04:14:40.198Z,23.52
2017-07-25T04:15:20.653Z,23.49
2017-07-25T04:16:01.108Z,23.52
2017-07-25T04:16:41.572Z,23.54
2017-07-25T04:17:22.034Z,23.56
2017-07-25T04:18:02.491Z,23.56
2017-07-25T04:18:42.951Z,23.54
2017-07-25T04:19:23.409Z,23.64
2017-07-25T04:20:03.860Z,23.58
2017-07-25T04:20:44.314Z,23.63
2017-07-25T04:21:24.769Z,23.67
2017-07-25T04:22:05.225Z,23.63
2017-07-25T04:22:45.679Z,23.63
2017-07-25T04:23:26.138Z,23.59
2017-07-25T04:24:06.597Z,23.62
2017-07-25T04:24:47.054Z,23.62
2017-07-25T04:25:27.512Z,23.66
2017-07-25T04:26:07.966Z,23.7
2017-07-25T04:26:48.420Z,23.7
2017-07-25T04:27:28.881Z,23.74
2017-07-25T04:28:09.340Z,23.7
2017-07-25T04:28:49.805Z,23.7
2017-07-25T04:29:30.253Z,23.69
2017-07-25T04:30:10.710Z,23.67
2017-07-25T04:30:51.164Z,23.7
2017-07-25T04:31:31.608Z,23.79
2017-07-25T04:32:12.066Z,23.71
2017-07-25T04:32:52.521Z,23.73
2017-07-25T04:33:32.976Z,23.7
2017-07-25T04:34:13.424Z,23.66
2017-07-25T04:34:53.886Z,23.67
2017-07-25T04:35:34.341Z,23.77
2017-07-25T04:36:14.795Z,23.69
2017-07-25T04:36:55.251Z,23.69
2017-07-25T04:37:35.711Z,23.71
2017-07-25T04:38:16.165Z,23.71
2017-07-25T04:38:56.626Z,23.67
2017-07-25T04:39:37.100Z,23.79
2017-07-25T04:40:17.543Z,23.69
2017-07-25T04:40:57.999Z,23.84
2017-07-25T04:41:38.452Z,23.82
2017-07-25T04:42:18.906Z,23.77
2017-07-25T04:42:59.354Z,23.73
2017-07-25T04:43:39.807Z,23.79
2017-07-25T04:44:20.268Z,23.77
2017-07-25T04:45:00.722Z,23.79
2017-07-25T04:45:41.168Z,23.73
2017-07-25T04:46:21.630Z,23.86
2017-07-25T04:47:02.076Z,23.81
2017-07-25T04:47:42.537Z,23.79
2017-07-25T04:48:22.987Z,23.81
2017-07-25T04:49:03.440Z,23.71
2017-07-25T04:49:43.897Z,23.84
2017-07-25T04:50:24.357Z,23.73
2017-07-25T04:51:04.815Z,23.85
2017-07-25T04:51:45.273Z,23.77
2017-07-25T04:52:25.732Z,23.79
2017-07-25T04:53:06.189Z,23.86
2017-07-25T04:53:46.641Z,23.74
2017-07-25T04:54:27.098Z,23.84
2017-07-25T04:55:07.553Z,23.71
2017-07-25T04:55:48.013Z,23.73
2017-07-25T04:56:28.463Z,23.77
2017-07-25T04:57:08.928Z,23.82
2017-07-25T04:57:49.377Z,23.69
2017-07-25T04:58:29.836Z,23.7
2017-07-25T04:59:10.294Z,23.67
2017-07-25T04:59:50.751Z,23.66
2017-07-25T05:00:31.207Z,23.84
2017-07-25T05:01:11.658Z,23.73
2017-07-25T05:01:52.133Z,23.71
2017-07-25T05:02:32.588Z,23.76
2017-07-25T05:03:13.045Z,23.73
2017-07-25T05:03:53.522Z,23.71
2017-07-25T05:04:33.979Z,23.7
2017-07-25T05:05:14.437Z,23.69
2017-07-25T05:05:54.974Z,23.69
2017-07-25T05:06:35.357Z,23.74
2017-07-25T05:07:15.806Z,23.82
2017-07-25T05:07:56.263Z,23.73
2017-07-25T05:08:36.719Z,23.69
2017-07-25T05:09:17.171Z,23.71
2017-07-25T05:09:57.635Z,23.73
2017-07-25T05:10:38.092Z,23.7
2017-07-25T05:11:18.556Z,23.66
2017-07-25T05:11:59.010Z,23.71
2017-07-25T05:12:39.472Z,23.73
2017-07-25T05:13:19.931Z,23.67
2017-07-25T05:14:00.358Z,23.7
2017-07-25T05:14:40.811Z,23.7
2017-07-25T05:15:21.268Z,23.73
2017-07-25T05:16:01.728Z,23.69
2017-07-25T05:16:42.181Z,23.74
2017-07-25T05:17:22.644Z,23.77
2017-07-25T05:18:03.088Z,23.73
2017-07-25T05:18:43.542Z,23.73
2017-07-25T05:19:23.990Z,23.73
2017-07-25T05:20:04.476Z,23.73
2017-07-25T05:20:44.933Z,23.69
2017-07-25T05:21:25.392Z,23.7
2017-07-25T05:22:05.852Z,23.84
2017-07-25T05:22:46.305Z,23.71
2017-07-25T05:23:26.755Z,23.82
2017-07-25T05:24:07.215Z,23.7
2017-07-25T05:24:47.671Z,23.76
2017-07-25T05:25:28.124Z,23.71
2017-07-25T05:26:08.577Z,23.71
2017-07-25T05:26:49.031Z,23.71
2017-07-25T05:27:29.499Z,23.7
2017-07-25T05:28:09.956Z,23.77
2017-07-25T05:28:50.410Z,23.69
2017-07-25T05:29:30.864Z,23.7
2017-07-25T05:30:11.364Z,23.7
2017-07-25T05:30:51.809Z,23.73
2017-07-25T05:31:32.262Z,23.79
2017-07-25T05:32:12.712Z,23.73
2017-07-25T05:32:53.167Z,23.74
2017-07-25T05:33:33.624Z,23.77
2017-07-25T05:34:15.322Z,23.69
2017-07-25T05:34:55.777Z,23.82
2017-07-25T05:35:36.232Z,23.69
2017-07-25T05:36:16.678Z,23.74
2017-07-25T05:36:57.129Z,23.77
2017-07-25T05:37:37.586Z,23.77
2017-07-25T05:38:18.054Z,23.73
2017-07-25T05:38:58.513Z,23.73
2017-07-25T05:39:38.972Z,23.69
2017-07-25T05:40:19.431Z,23.69
2017-07-25T05:40:59.881Z,23.71
2017-07-25T05:41:40.339Z,23.64
2017-07-25T05:42:20.798Z,23.73
2017-07-25T05:43:01.256Z,23.74
2017-07-25T05:43:41.713Z,23.76
2017-07-25T05:44:22.169Z,23.66
2017-07-25T05:45:02.618Z,23.77
2017-07-25T05:45:43.076Z,23.82
2017-07-25T05:46:23.524Z,23.74
2017-07-25T05:47:03.983Z,23.67
2017-07-25T05:47:44.455Z,23.71
2017-07-25T05:48:24.907Z,23.73
2017-07-25T05:49:05.365Z,23.69
2017-07-25T05:49:45.816Z,23.74
2017-07-25T05:50:26.270Z,23.79
2017-07-25T05:51:06.727Z,23.76
2017-07-25T05:51:47.183Z,23.69
2017-07-25T05:52:27.640Z,23.7
2017-07-25T05:53:08.092Z,23.73
2017-07-25T05:53:48.552Z,23.7
2017-07-25T05:54:29.010Z,23.71
2017-07-25T05:55:09.465Z,23.76
2017-07-25T05:55:49.923Z,23.71
2017-07-25T05:56:30.367Z,23.73
2017-07-25T05:57:10.823Z,23.69
2017-07-25T05:57:51.275Z,23.73
2017-07-25T05:58:31.719Z,23.7
2017-07-25T05:59:12.182Z,23.73
2017-07-25T05:59:52.636Z,23.76
2017-07-25T06:00:33.116Z,23.69
2017-07-25T06:01:13.546Z,23.81
2017-07-25T06:01:54.002Z,23.74
2017-07-25T06:02:34.458Z,23.71
2017-07-25T06:03:14.918Z,23.63
2017-07-25T06:03:55.371Z,23.73
2017-07-25T06:04:35.825Z,23.74
2017-07-25T06:05:16.288Z,23.64
2017-07-25T06:05:56.747Z,23.73
2017-07-25T06:06:37.202Z,23.77
2017-07-25T06:07:17.655Z,23.7
2017-07-25T06:07:58.112Z,23.76
2017-07-25T06:08:38.568Z,23.64
2017-07-25T06:09:19.018Z,23.73
2017-07-25T06:09:59.477Z,23.77
2017-07-25T06:10:39.933Z,23.76
2017-07-25T06:11:20.414Z,23.79
2017-07-25T06:12:00.870Z,23.79
2017-07-25T06:12:41.323Z,23.69
2017-07-25T06:13:21.780Z,23.67
2017-07-25T06:14:02.230Z,23.7
2017-07-25T06:14:42.684Z,23.69
2017-07-25T06:15:23.142Z,23.69
2017-07-25T06:16:03.597Z,23.71
2017-07-25T06:16:44.046Z,23.7
2017-07-25T06:17:24.511Z,23.7
2017-07-25T06:18:04.955Z,23.62
2017-07-25T06:18:45.421Z,23.71
2017-07-25T06:19:25.880Z,23.64
2017-07-25T06:20:06.330Z,23.7
2017-07-25T06:20:46.793Z,23.74
2017-07-25T06:21:27.237Z,23.63
2017-07-25T06:22:07.695Z,23.66
2017-07-25T06:22:48.148Z,23.71
2017-07-25T06:23:28.600Z,23.76
2017-07-25T06:24:09.052Z,23.67
2017-07-25T06:24:49.509Z,23.76
2017-07-25T06:25:29.967Z,23.7
2017-07-25T06:26:10.429Z,23.66
2017-07-25T06:26:50.883Z,23.66
2017-07-25T06:27:31.344Z,23.71
2017-07-25T06:28:11.801Z,23.71
2017-07-25T06:28:52.264Z,23.7
2017-07-25T06:29:32.710Z,23.64
2017-07-25T06:30:13.166Z,23.66
2017-07-25T06:30:53.624Z,23.66
2017-07-25T06:31:34.077Z,23.66
2017-07-25T06:32:14.530Z,23.66
2017-07-25T06:32:54.989Z,23.71
2017-07-25T06:33:35.446Z,23.67
2017-07-25T06:34:15.896Z,23.7
2017-07-25T06:34:56.352Z,23.67
2017-07-25T06:35:36.802Z,23.69
2017-07-25T06:36:17.255Z,23.73
2017-07-25T06:36:57.701Z,23.76
2017-07-25T06:37:38.172Z,23.67
2017-07-25T06:38:18.651Z,23.71
2017-07-25T06:38:59.078Z,23.73
2017-07-25T06:39:39.550Z,23.74
2017-07-25T06:40:20.001Z,23.71
2017-07-25T06:41:00.444Z,23.69
2017-07-25T06:41:40.892Z,23.69
2017-07-25T06:42:21.342Z,23.76
2017-07-25T06:43:01.795Z,23.64
2017-07-25T06:43:42.291Z,23.63
2017-07-25T06:44:22.943Z,23.73
2017-07-25T06:45:03.392Z,23.67
2017-07-25T06:45:43.849Z,23.63
2017-07-25T06:46:24.297Z,23.73
2017-07-25T06:47:04.756Z,23.73
2017-07-25T06:47:45.210Z,23.76
2017-07-25T06:48:25.665Z,23.66
2017-07-25T06:49:06.107Z,23.73
2017-07-25T06:49:46.572Z,23.73
2017-07-25T06:50:27.023Z,23.67
2017-07-25T06:51:07.473Z,23.69
2017-07-25T06:51:47.930Z,23.69
2017-07-25T06:52:28.386Z,23.64
2017-07-25T06:53:08.824Z,23.62
2017-07-25T06:53:49.284Z,23.71
2017-07-25T06:54:29.741Z,23.64
2017-07-25T06:55:10.261Z,23.74
2017-07-25T06:55:50.728Z,23.7
2017-07-25T06:56:31.182Z,23.64
2017-07-25T06:57:11.638Z,23.7
2017-07-25T06:57:52.094Z,23.64
2017-07-25T06:58:32.570Z,23.66
2017-07-25T06:59:13.027Z,23.66
2017-07-25T06:59:53.475Z,23.62
2017-07-25T07:00:33.903Z,23.73
2017-07-25T07:01:14.466Z,23.66
2017-07-25T07:01:54.908Z,23.63
2017-07-25T07:02:35.366Z,23.63
2017-07-25T07:03:15.827Z,23.66
2017-07-25T07:03:56.285Z,23.67
2017-07-25T07:04:36.737Z,23.69
2017-07-25T07:05:17.188Z,23.66
2017-07-25T07:05:57.644Z,23.73
2017-07-25T07:06:38.091Z,23.66
2017-07-25T07:07:18.553Z,23.64
2017-07-25T07:07:58.994Z,23.64
2017-07-25T07:08:39.454Z,23.64
2017-07-25T07:09:19.906Z,23.74
2017-07-25T07:10:00.362Z,23.66
2017-07-25T07:10:40.811Z,23.66
2017-07-25T07:11:21.265Z,23.66
2017-07-25T07:12:01.721Z,23.69
2017-07-25T07:12:42.189Z,23.74
2017-07-25T07:13:22.649Z,23.73
2017-07-25T07:14:03.113Z,23.69
2017-07-25T07:14:43.573Z,23.71
2017-07-25T07:15:24.026Z,23.74
2017-07-25T07:16:04.476Z,23.71
2017-07-25T07:16:44.931Z,23.69
2017-07-25T07:17:25.384Z,23.76
2017-07-25T07:18:05.842Z,23.7
2017-07-25T07:18:46.298Z,23.73
2017-07-25T07:19:26.754Z,23.66
2017-07-25T07:20:07.213Z,23.67
2017-07-25T07:20:47.675Z,23.7
2017-07-25T07:21:28.127Z,23.76
2017-07-25T07:22:08.575Z,23.74
2017-07-25T07:22:49.033Z,23.74
2017-07-25T07:23:29.483Z,23.66
2017-07-25T07:24:09.945Z,23.67
2017-07-25T07:24:50.406Z,23.7
2017-07-25T07:25:30.861Z,23.66
2017-07-25T07:26:11.311Z,23.71
2017-07-25T07:26:51.768Z,23.67
2017-07-25T07:27:32.219Z,23.76
2017-07-25T07:28:12.677Z,23.73
2017-07-25T07:28:53.128Z,23.77
2017-07-25T07:29:33.585Z,23.71
2017-07-25T07:30:14.040Z,23.69
2017-07-25T07:30:54.496Z,23.69
2017-07-25T07:31:34.952Z,23.7
2017-07-25T07:32:15.419Z,23.76
2017-07-25T07:32:55.868Z,23.74
2017-07-25T07:33:36.325Z,23.74
2017-07-25T07:34:16.792Z,23.73
2017-07-25T07:34:57.231Z,23.73
2017-07-25T07:35:37.686Z,23.69
2017-07-25T07:36:18.156Z,23.69
2017-07-25T07:36:58.596Z,23.71
2017-07-25T07:37:39.049Z,23.64
2017-07-25T07:38:19.497Z,23.73
2017-07-25T07:38:59.954Z,23.74
2017-07-25T07:39:40.412Z,23.64
2017-07-25T07:40:20.868Z,23.64
2017-07-25T07:41:01.323Z,23.73
2017-07-25T07:41:41.778Z,23.74
2017-07-25T07:42:22.235Z,23.67
2017-07-25T07:43:02.693Z,23.69
2017-07-25T07:43:43.147Z,23.71
2017-07-25T07:44:23.609Z,23.7
2017-07-25T07:45:04.055Z,23.73
2017-07-25T07:45:44.511Z,23.69
2017-07-25T07:46:24.968Z,23.74
2017-07-25T07:47:05.419Z,23.81
2017-07-25T07:47:45.880Z,23.73
2017-07-25T07:48:26.344Z,23.69
2017-07-25T07:49:06.814Z,23.67
2017-07-25T07:49:47.269Z,23.73
2017-07-25T07:50:27.724Z,23.71
2017-07-25T07:51:08.185Z,23.73
2017-07-25T07:51:48.639Z,23.69
2017-07-25T07:52:29.094Z,23.74
2017-07-25T07:53:09.550Z,23.7
2017-07-25T07:53:50.008Z,23.69
2017-07-25T07:54:30.473Z,23.71
2017-07-25T07:55:10.948Z,23.7
2017-07-25T07:55:51.386Z,23.71
2017-07-25T07:56:31.835Z,23.74
2017-07-25T07:57:12.296Z,23.76
2017-07-25T07:57:52.747Z,23.77
2017-07-25T07:58:33.205Z,23.7
2017-07-25T07:59:13.657Z,23.69
2017-07-25T07:59:54.105Z,23.73
2017-07-25T08:00:34.556Z,23.69
2017-07-25T08:01:15.010Z,23.74
2017-07-25T08:01:55.466Z,23.7
2017-07-25T08:02:35.926Z,23.7
2017-07-25T08:03:16.379Z,23.73
2017-07-25T08:03:56.824Z,23.69
2017-07-25T08:04:37.279Z,23.77
2017-07-25T08:05:17.741Z,23.71
2017-07-25T08:05:58.194Z,23.69
2017-07-25T08:06:38.647Z,23.69
2017-07-25T08:07:19.104Z,23.71
2017-07-25T08:07:59.572Z,23.71
2017-07-25T08:08:40.033Z,23.71
2017-07-25T08:09:20.530Z,23.7
2017-07-25T08:10:00.988Z,23.7
2017-07-25T08:10:41.437Z,23.66
2017-07-25T08:11:21.902Z,23.71
2017-07-25T08:12:02.356Z,23.66
2017-07-25T08:12:42.814Z,23.73
2017-07-25T08:13:23.273Z,23.71
2017-07-25T08:14:03.734Z,23.7
2017-07-25T08:14:44.186Z,23.71
2017-07-25T08:15:24.649Z,23.71
2017-07-25T08:16:05.112Z,23.76
2017-07-25T08:16:45.742Z,23.66
2017-07-25T08:17:26.284Z,23.7
2017-07-25T08:18:06.646Z,23.74
2017-07-25T08:18:47.107Z,23.76
2017-07-25T08:19:27.674Z,23.7
2017-07-25T08:20:08.245Z,23.77
2017-07-25T08:20:48.697Z,23.76
2017-07-25T08:21:29.152Z,23.69
2017-07-25T08:22:09.604Z,23.7
2017-07-25T08:22:50.160Z,23.7
2017-07-25T08:23:30.873Z,23.73
2017-07-25T08:24:11.329Z,23.77
2017-07-25T08:24:51.779Z,23.7
2017-07-25T08:25:32.242Z,23.74
2017-07-25T08:26:12.705Z,23.71
2017-07-25T08:26:53.167Z,23.71
2017-07-25T08:27:33.635Z,23.79
2017-07-25T08:28:14.101Z,23.79
2017-07-25T08:28:54.562Z,23.67
2017-07-25T08:29:35.038Z,23.74
2017-07-25T08:30:15.495Z,23.7
2017-07-25T08:30:55.954Z,23.71
2017-07-25T08:31:36.415Z,23.69
2017-07-25T08:32:17.038Z,23.71
2017-07-25T08:32:57.472Z,23.73
2017-07-25T08:33:37.952Z,23.71
2017-07-25T08:34:18.626Z,23.71
2017-07-25T08:34:59.093Z,23.73
2017-07-25T08:35:39.536Z,23.76
2017-07-25T08:36:19.995Z,23.73
2017-07-25T08:37:00.449Z,23.71
2017-07-25T08:37:40.906Z,23.73
2017-07-25T08:38:21.365Z,23.73
2017-07-25T08:39:01.914Z,23.71
2017-07-25T08:39:42.340Z,23.66
2017-07-25T08:40:22.794Z,23.71
2017-07-25T08:41:03.291Z,23.71
2017-07-25T08:41:43.757Z,23.71
2017-07-25T08:42:24.303Z,23.71
2017-07-25T08:43:04.746Z,23.73